createdAt,value
2019-02-25T00:01:44.118Z,52.60
2019-02-25T00:04:14.884Z,52.50
2019-02-25T00:06:44.653Z,52.40
2019-02-25T00:09:14.591Z,52.90
2019-02-25T00:11:44.504Z,52.90
2019-02-25T00:14:14.269Z,53.10
2019-02-25T00:16:44.070Z,53.10
2019-02-25T00:19:14.082Z,53.00
2019-02-25T00:21:43.884Z,52.90
2019-02-25T00:24:13.785Z,52.90
2019-02-25T00:26:43.559Z,53.10
2019-02-25T00:29:13.316Z,53.00
2019-02-25T00:31:43.162Z,52.90
2019-02-25T00:34:13.094Z,53.10
2019-02-25T00:36:42.906Z,53.20
2019-02-25T00:39:13.013Z,53.10
2019-02-25T00:41:42.928Z,53.10
2019-02-25T00:44:13.436Z,53.20
2019-02-25T00:46:43.200Z,53.00
2019-02-25T00:49:13.181Z,53.00
2019-02-25T00:51:43.077Z,53.10
2019-02-25T00:54:12.869Z,53.60
2019-02-25T00:56:42.791Z,54.60
2019-02-25T00:59:12.557Z,54.20
2019-02-25T01:01:42.454Z,53.90
2019-02-25T01:04:13.420Z,53.90
2019-02-25T01:06:43.212Z,53.80
2019-02-25T01:09:13.128Z,54.10
2019-02-25T01:11:42.942Z,54.00
2019-02-25T01:14:12.705Z,53.80
2019-02-25T01:16:42.505Z,53.90
2019-02-25T01:19:12.304Z,54.10
2019-02-25T01:21:42.123Z,54.10
2019-02-25T01:24:11.925Z,54.10
2019-02-25T01:26:41.689Z,54.10
2019-02-25T01:29:11.453Z,54.00
2019-02-25T01:31:41.458Z,53.90
2019-02-25T01:34:11.227Z,54.10
2019-02-25T01:36:41.006Z,54.00
2019-02-25T01:39:10.904Z,54.10
2019-02-25T01:41:40.669Z,54.00
2019-02-25T01:44:10.552Z,54.40
2019-02-25T01:46:40.362Z,54.30
2019-02-25T01:49:10.156Z,54.30
2019-02-25T01:51:40.021Z,54.30
2019-02-25T01:54:10.806Z,54.30
2019-02-25T01:56:40.623Z,54.30
2019-02-25T01:59:10.414Z,54.40
2019-02-25T02:01:40.181Z,54.50
2019-02-25T02:04:10.254Z,54.50
2019-02-25T02:06:40.064Z,54.70
2019-02-25T02:09:10.158Z,54.90
2019-02-25T02:11:40.666Z,54.90
2019-02-25T02:14:11.242Z,55.60
2019-02-25T02:16:41.145Z,55.20
2019-02-25T02:19:10.957Z,55.00
2019-02-25T02:21:40.730Z,55.00
2019-02-25T02:24:10.643Z,55.00
2019-02-25T02:26:40.656Z,55.50
2019-02-25T02:29:10.462Z,56.10
2019-02-25T02:31:40.522Z,56.20
2019-02-25T02:34:10.981Z,55.90
2019-02-25T02:36:40.825Z,55.70
2019-02-25T02:39:10.761Z,55.70
2019-02-25T02:41:59.749Z,55.60
2019-02-25T02:44:29.514Z,55.80
2019-02-25T02:47:19.020Z,55.70
2019-02-25T02:49:48.862Z,55.60
2019-02-25T02:52:18.858Z,55.40
2019-02-25T02:54:49.505Z,55.60
2019-02-25T02:57:19.287Z,55.70
2019-02-25T02:59:49.044Z,55.80
2019-02-25T03:02:18.982Z,55.70
2019-02-25T03:04:48.810Z,55.80
2019-02-25T03:07:18.698Z,56.00
2019-02-25T03:09:48.730Z,56.40
2019-02-25T03:12:18.549Z,56.50
2019-02-25T03:14:48.318Z,56.50
2019-02-25T03:17:18.146Z,56.30
2019-02-25T03:19:47.973Z,56.30
2019-02-25T03:22:17.820Z,56.20
2019-02-25T03:24:47.763Z,56.40
2019-02-25T03:27:17.593Z,56.30
2019-02-25T03:29:47.408Z,56.30
2019-02-25T03:32:17.334Z,56.50
2019-02-25T03:34:47.145Z,56.70
2019-02-25T03:37:17.134Z,56.40
2019-02-25T03:39:46.959Z,56.40
2019-02-25T03:42:16.956Z,56.70
2019-02-25T03:44:47.417Z,56.80
2019-02-25T03:47:17.314Z,56.90
2019-02-25T03:49:47.216Z,57.00
2019-02-25T03:52:17.230Z,57.00
2019-02-25T03:54:47.064Z,57.40
2019-02-25T03:57:16.871Z,58.00
2019-02-25T03:59:47.214Z,58.20
2019-02-25T04:02:17.027Z,57.90
2019-02-25T04:04:48.633Z,57.70
2019-02-25T04:07:18.555Z,57.50
2019-02-25T04:09:48.308Z,57.60
2019-02-25T04:12:18.078Z,57.70
2019-02-25T04:14:47.883Z,57.50
2019-02-25T04:17:17.803Z,57.60
2019-02-25T04:19:47.624Z,57.50
2019-02-25T04:22:17.389Z,57.50
2019-02-25T04:24:47.175Z,57.80
2019-02-25T04:27:17.194Z,57.80
2019-02-25T04:29:47.010Z,57.90
2019-02-25T04:32:17.090Z,58.00
2019-02-25T04:34:46.938Z,58.50
2019-02-25T04:37:16.945Z,58.40
2019-02-25T04:39:46.914Z,58.50
2019-02-25T04:42:16.792Z,58.50
2019-02-25T04:44:46.621Z,58.40
2019-02-25T04:47:16.641Z,58.40
2019-02-25T04:49:46.437Z,58.50
2019-02-25T04:52:16.619Z,58.40
2019-02-25T04:54:46.437Z,58.30
2019-02-25T04:57:16.257Z,58.30
2019-02-25T04:59:46.070Z,58.40
2019-02-25T05:02:16.529Z,58.80
2019-02-25T05:04:46.305Z,58.70
2019-02-25T05:07:16.183Z,58.70
2019-02-25T05:09:46.102Z,58.40
2019-02-25T05:12:16.266Z,58.50
2019-02-25T05:14:46.086Z,58.40
2019-02-25T05:17:15.895Z,58.50
2019-02-25T05:19:45.693Z,58.70
2019-02-25T05:22:15.526Z,59.00
2019-02-25T05:24:46.029Z,60.30
2019-02-25T05:27:16.087Z,59.50
2019-02-25T05:29:46.127Z,59.50
2019-02-25T05:32:16.136Z,59.90
2019-02-25T05:34:45.955Z,60.00
2019-02-25T05:37:16.568Z,59.80
2019-02-25T05:39:46.588Z,59.60
2019-02-25T05:42:17.261Z,59.40
2019-02-25T05:44:47.314Z,59.50
2019-02-25T05:47:17.128Z,59.70
2019-02-25T05:49:46.919Z,59.60
2019-02-25T05:52:16.749Z,59.40
2019-02-25T05:54:46.649Z,59.30
2019-02-25T05:57:16.461Z,59.30
2019-02-25T05:59:46.747Z,59.40
2019-02-25T06:02:16.642Z,59.90
2019-02-25T06:04:46.450Z,59.30
2019-02-25T06:07:17.320Z,59.30
2019-02-25T06:09:48.194Z,59.10
2019-02-25T06:12:18.122Z,59.20
2019-02-25T06:14:47.920Z,59.80
2019-02-25T06:17:17.741Z,59.10
2019-02-25T06:19:47.740Z,59.00
2019-02-25T06:22:17.767Z,58.90
2019-02-25T06:24:47.589Z,59.00
2019-02-25T06:27:17.565Z,59.20
2019-02-25T06:29:47.466Z,59.40
2019-02-25T06:32:17.622Z,59.40
2019-02-25T06:34:48.165Z,59.40
2019-02-25T06:37:18.145Z,59.60
2019-02-25T06:39:49.062Z,60.00
2019-02-25T06:42:18.934Z,60.00
2019-02-25T06:44:48.917Z,59.90
2019-02-25T06:47:18.836Z,59.90
2019-02-25T06:49:48.859Z,59.70
2019-02-25T06:52:20.032Z,60.10
2019-02-25T06:54:50.018Z,60.40
2019-02-25T06:57:19.833Z,60.40
2019-02-25T06:59:49.729Z,60.50
2019-02-25T07:02:19.654Z,60.00
2019-02-25T07:04:54.208Z,60.00
2019-02-25T07:07:25.665Z,60.00
2019-02-25T07:09:57.189Z,60.30
2019-02-25T07:12:28.838Z,60.10
2019-02-25T07:15:01.069Z,60.00
2019-02-25T07:17:38.584Z,59.80
2019-02-25T07:20:19.615Z,59.60
2019-02-25T07:22:51.106Z,59.40
2019-02-25T07:25:22.560Z,59.00
2019-02-25T07:27:59.674Z,58.60
2019-02-25T07:30:36.717Z,58.00
2019-02-25T07:33:08.197Z,57.30
2019-02-25T07:35:42.292Z,56.50
2019-02-25T07:38:14.362Z,55.30
2019-02-25T07:40:48.868Z,54.20
2019-02-25T07:43:26.445Z,53.50
2019-02-25T07:46:03.587Z,52.30
2019-02-25T07:48:37.813Z,51.20
2019-02-25T07:51:09.376Z,49.70
2019-02-25T07:53:43.481Z,48.90
2019-02-25T07:56:18.014Z,48.00
2019-02-25T07:59:01.041Z,46.90
2019-02-25T08:01:41.181Z,46.20
2019-02-25T08:04:22.901Z,45.50
2019-02-25T08:07:00.031Z,44.80
2019-02-25T08:09:37.258Z,44.00
2019-02-25T08:12:17.954Z,42.60
2019-02-25T08:14:58.149Z,41.70
2019-02-25T08:17:38.386Z,40.80
2019-02-25T08:20:21.502Z,39.80
2019-02-25T08:22:59.849Z,39.20
2019-02-25T08:25:34.078Z,38.70
2019-02-25T08:28:11.540Z,37.90
2019-02-25T08:30:48.869Z,37.40
2019-02-25T08:33:26.294Z,36.00
2019-02-25T08:36:16.970Z,36.20
2019-02-25T08:38:57.177Z,35.60
2019-02-25T08:41:29.140Z,35.60
2019-02-25T08:44:12.557Z,35.10
2019-02-25T08:46:44.114Z,34.80
2019-02-25T08:49:18.919Z,34.90
2019-02-25T08:51:48.836Z,34.60
2019-02-25T08:54:18.889Z,34.40
2019-02-25T08:56:48.730Z,34.20
2019-02-25T08:59:18.815Z,33.70
2019-02-25T09:01:48.834Z,33.00
2019-02-25T09:04:18.686Z,32.70
2019-02-25T09:06:48.509Z,32.30
2019-02-25T09:09:18.363Z,32.20
2019-02-25T09:11:48.169Z,32.20
2019-02-25T09:14:18.164Z,32.40
2019-02-25T09:16:48.038Z,32.90
2019-02-25T09:19:17.921Z,33.20
2019-02-25T09:21:47.778Z,33.20
2019-02-25T09:24:17.612Z,33.50
2019-02-25T09:26:47.427Z,34.20
2019-02-25T09:29:17.385Z,34.60
2019-02-25T09:31:47.609Z,35.00
2019-02-25T09:34:17.466Z,35.50
2019-02-25T09:36:47.342Z,36.10
2019-02-25T09:39:17.404Z,36.30
2019-02-25T09:41:47.213Z,36.50
2019-02-25T09:44:18.302Z,36.80
2019-02-25T09:46:48.138Z,37.10
2019-02-25T09:49:18.102Z,37.40
2019-02-25T09:51:47.909Z,37.40
2019-02-25T09:54:17.822Z,37.60
2019-02-25T09:56:47.721Z,37.60
2019-02-25T09:59:17.617Z,37.80
2019-02-25T10:01:47.437Z,37.70
2019-02-25T10:04:17.389Z,37.70
2019-02-25T10:06:47.258Z,37.50
2019-02-25T10:09:17.064Z,37.40
2019-02-25T10:11:48.709Z,37.30
2019-02-25T10:14:18.737Z,37.30
2019-02-25T10:16:48.560Z,36.70
2019-02-25T10:19:18.534Z,36.30
2019-02-25T10:21:48.357Z,36.50
2019-02-25T10:24:18.268Z,36.90
2019-02-25T10:26:48.150Z,37.10
2019-02-25T10:29:18.088Z,37.20
2019-02-25T10:31:48.229Z,37.60
2019-02-25T10:34:18.122Z,37.10
2019-02-25T10:36:50.165Z,37.20
2019-02-25T10:39:19.905Z,36.80
2019-02-25T10:41:51.223Z,36.50
2019-02-25T10:44:21.631Z,36.30
2019-02-25T10:46:51.574Z,36.30
2019-02-25T10:49:22.556Z,36.30
2019-02-25T10:51:52.963Z,35.90
2019-02-25T10:54:23.296Z,35.50
2019-02-25T10:56:55.844Z,35.30
2019-02-25T10:59:26.358Z,34.80
2019-02-25T11:01:56.316Z,34.60
2019-02-25T11:04:26.361Z,34.00
2019-02-25T11:06:56.682Z,33.40
2019-02-25T11:09:31.448Z,33.30
2019-02-25T11:12:01.371Z,33.00
2019-02-25T11:14:33.385Z,32.50
2019-02-25T11:17:03.036Z,32.60
2019-02-25T11:19:33.033Z,32.50
2019-02-25T11:22:02.922Z,32.60
2019-02-25T11:24:32.798Z,32.50
2019-02-25T11:27:03.489Z,32.20
2019-02-25T11:29:34.288Z,32.00
2019-02-25T11:32:05.004Z,32.30
2019-02-25T11:34:35.761Z,32.40
2019-02-25T11:37:06.428Z,32.20
2019-02-25T11:39:37.232Z,31.90
2019-02-25T11:42:08.010Z,31.70
2019-02-25T11:44:38.825Z,31.90
2019-02-25T11:47:08.660Z,31.90
2019-02-25T11:49:38.495Z,32.50
2019-02-25T11:52:08.406Z,32.30
2019-02-25T11:54:38.209Z,32.50
2019-02-25T11:57:08.126Z,32.40
2019-02-25T11:59:37.947Z,32.40
2019-02-25T12:02:08.270Z,32.40
2019-02-25T12:04:38.294Z,32.60
2019-02-25T12:07:08.249Z,32.90
2019-02-25T12:09:39.340Z,33.00
2019-02-25T12:12:09.153Z,33.20
2019-02-25T12:14:38.965Z,33.40
2019-02-25T12:17:08.805Z,34.00
2019-02-25T12:19:38.942Z,34.30
2019-02-25T12:22:09.766Z,34.40
2019-02-25T12:24:39.657Z,34.40
2019-02-25T12:27:09.505Z,34.70
2019-02-25T12:29:40.256Z,34.90
2019-02-25T12:32:10.253Z,35.00
2019-02-25T12:34:40.070Z,35.10
2019-02-25T12:37:09.963Z,35.00
2019-02-25T12:39:39.802Z,35.60
2019-02-25T12:42:09.793Z,35.00
2019-02-25T12:44:39.761Z,35.10
2019-02-25T12:47:09.670Z,35.00
2019-02-25T12:49:40.018Z,35.10
2019-02-25T12:52:09.962Z,35.20
2019-02-25T12:54:39.890Z,35.40
2019-02-25T12:57:09.702Z,35.30
2019-02-25T12:59:39.540Z,35.80
2019-02-25T13:02:09.373Z,35.00
2019-02-25T13:04:39.345Z,35.10
2019-02-25T13:07:09.335Z,35.00
2019-02-25T13:09:40.122Z,35.00
2019-02-25T13:12:09.946Z,34.60
2019-02-25T13:14:39.777Z,34.00
2019-02-25T13:17:09.868Z,34.00
2019-02-25T13:19:39.829Z,33.90
2019-02-25T13:22:09.670Z,33.70
2019-02-25T13:24:39.676Z,33.70
2019-02-25T13:27:11.804Z,34.00
2019-02-25T13:29:41.069Z,33.90
2019-02-25T13:32:11.007Z,33.80
2019-02-25T13:34:41.565Z,33.90
2019-02-25T13:37:11.507Z,33.80
2019-02-25T13:39:41.465Z,34.00
2019-02-25T13:42:11.369Z,33.90
2019-02-25T13:44:41.450Z,34.10
2019-02-25T13:47:11.629Z,34.20
2019-02-25T13:49:41.529Z,34.00
2019-02-25T13:52:11.612Z,34.30
2019-02-25T13:54:41.677Z,34.30
2019-02-25T13:57:11.662Z,34.50
2019-02-25T13:59:41.497Z,34.60
2019-02-25T14:02:11.357Z,34.60
2019-02-25T14:04:41.264Z,34.60
2019-02-25T14:07:12.064Z,34.70
2019-02-25T14:09:42.089Z,34.70
2019-02-25T14:12:12.196Z,34.80
2019-02-25T14:14:42.189Z,34.80
2019-02-25T14:17:12.098Z,35.00
2019-02-25T14:19:41.950Z,35.00
2019-02-25T14:22:12.237Z,35.10
2019-02-25T14:24:42.181Z,35.00
2019-02-25T14:27:12.234Z,35.90
2019-02-25T14:29:44.662Z,36.40
2019-02-25T14:32:15.426Z,36.00
2019-02-25T14:34:46.451Z,35.80
2019-02-25T14:37:17.717Z,35.80
2019-02-25T14:39:51.589Z,35.70
2019-02-25T14:42:21.024Z,35.60
2019-02-25T14:44:52.165Z,35.60
2019-02-25T14:47:29.935Z,35.50
2019-02-25T14:49:55.352Z,35.50
2019-02-25T14:52:26.858Z,35.50
2019-02-25T14:54:57.590Z,35.60
2019-02-25T14:57:28.879Z,35.90
2019-02-25T14:59:59.346Z,35.70
2019-02-25T15:02:30.208Z,35.60
2019-02-25T15:05:00.259Z,35.70
2019-02-25T15:07:32.324Z,35.60
2019-02-25T15:10:02.504Z,35.90
2019-02-25T15:12:35.913Z,36.00
2019-02-25T15:15:09.085Z,36.20
2019-02-25T15:17:39.056Z,36.20
2019-02-25T15:20:18.631Z,36.30
2019-02-25T15:22:49.449Z,36.50
2019-02-25T15:25:20.098Z,36.70
2019-02-25T15:27:50.966Z,36.80
2019-02-25T15:30:31.610Z,36.70
2019-02-25T15:33:01.513Z,36.70
2019-02-25T15:35:35.097Z,36.70
2019-02-25T15:38:04.105Z,36.80
2019-02-25T15:40:34.193Z,37.10
2019-02-25T15:43:15.091Z,36.90
2019-02-25T15:45:45.414Z,36.80
2019-02-25T15:48:22.601Z,37.00
2019-02-25T15:50:55.478Z,37.00
2019-02-25T15:53:27.534Z,37.10
2019-02-25T15:55:59.640Z,37.20
2019-02-25T15:58:29.378Z,37.40
2019-02-25T16:00:59.221Z,37.20
2019-02-25T16:03:29.209Z,37.50
2019-02-25T16:06:01.682Z,37.70
2019-02-25T16:08:31.696Z,37.80
2019-02-25T16:11:03.025Z,37.60
2019-02-25T16:13:33.488Z,37.60
2019-02-25T16:16:03.853Z,37.80
2019-02-25T16:18:33.850Z,37.90
2019-02-25T16:21:03.991Z,37.90
2019-02-25T16:23:34.669Z,38.00
2019-02-25T16:26:05.710Z,38.00
2019-02-25T16:28:37.690Z,38.10
2019-02-25T16:31:08.343Z,38.30
2019-02-25T16:33:39.422Z,38.30
2019-02-25T16:36:09.978Z,38.40
2019-02-25T16:38:39.940Z,38.40
2019-02-25T16:41:10.308Z,38.50
2019-02-25T16:43:41.245Z,38.60
2019-02-25T16:46:15.241Z,38.70
2019-02-25T16:48:46.322Z,38.60
2019-02-25T16:51:17.254Z,38.50
2019-02-25T16:53:50.535Z,38.50
2019-02-25T16:56:19.076Z,38.50
2019-02-25T16:58:49.969Z,38.80
2019-02-25T17:01:21.035Z,38.80
2019-02-25T17:03:51.178Z,39.00
2019-02-25T17:06:21.201Z,39.00
2019-02-25T17:08:51.800Z,39.00
2019-02-25T17:11:22.641Z,39.10
2019-02-25T17:13:53.031Z,39.20
2019-02-25T17:16:24.285Z,39.10
2019-02-25T17:18:54.857Z,39.80
2019-02-25T17:21:26.590Z,40.30
2019-02-25T17:23:58.252Z,41.00
2019-02-25T17:26:28.045Z,41.40
2019-02-25T17:28:58.121Z,41.70
2019-02-25T17:31:30.040Z,42.20
2019-02-25T17:33:59.799Z,42.80
2019-02-25T17:36:29.561Z,42.90
2019-02-25T17:38:59.550Z,43.10
2019-02-25T17:41:29.831Z,43.40
2019-02-25T17:44:01.330Z,43.70
2019-02-25T17:46:32.831Z,44.20
2019-02-25T17:49:05.996Z,44.50
2019-02-25T17:51:35.649Z,44.50
2019-02-25T17:54:06.367Z,45.00
2019-02-25T17:56:38.088Z,45.30
2019-02-25T17:59:09.725Z,45.90
2019-02-25T18:01:40.348Z,46.20
2019-02-25T18:04:11.570Z,46.30
2019-02-25T18:06:41.594Z,46.70
2019-02-25T18:09:13.732Z,46.40
2019-02-25T18:11:44.969Z,46.90
2019-02-25T18:14:15.859Z,47.10
2019-02-25T18:16:48.689Z,47.10
2019-02-25T18:19:20.213Z,47.60
2019-02-25T18:21:49.802Z,47.80
2019-02-25T18:24:19.565Z,47.90
2019-02-25T18:26:49.413Z,47.90
2019-02-25T18:29:20.810Z,48.00
2019-02-25T18:31:50.768Z,48.40
2019-02-25T18:34:20.674Z,48.50
2019-02-25T18:36:51.629Z,49.00
2019-02-25T18:39:23.131Z,49.60
2019-02-25T18:41:55.063Z,49.60
2019-02-25T18:44:26.062Z,49.40
2019-02-25T18:46:56.025Z,49.30
2019-02-25T18:49:27.803Z,49.30
2019-02-25T18:51:57.447Z,49.50
2019-02-25T18:54:27.345Z,49.60
2019-02-25T18:56:58.980Z,49.60
2019-02-25T18:59:29.290Z,49.60
2019-02-25T19:01:59.274Z,50.60
2019-02-25T19:04:29.165Z,49.90
2019-02-25T19:06:59.851Z,50.60
2019-02-25T19:09:30.537Z,50.80
2019-02-25T19:12:00.565Z,50.70
2019-02-25T19:14:31.136Z,51.10
2019-02-25T19:17:04.834Z,51.20
2019-02-25T19:19:38.134Z,50.90
2019-02-25T19:22:08.670Z,51.00
2019-02-25T19:24:42.263Z,51.00
2019-02-25T19:27:12.937Z,51.10
2019-02-25T19:29:45.085Z,51.20
2019-02-25T19:32:14.878Z,51.30
2019-02-25T19:34:44.848Z,51.70
2019-02-25T19:37:15.061Z,52.00
2019-02-25T19:39:46.782Z,51.90
2019-02-25T19:42:19.787Z,52.30
2019-02-25T19:44:48.369Z,52.30
2019-02-25T19:47:19.493Z,52.40
2019-02-25T19:49:49.493Z,52.10
2019-02-25T19:52:19.669Z,52.10
2019-02-25T19:54:50.705Z,52.50
2019-02-25T19:57:21.633Z,52.50
2019-02-25T19:59:55.405Z,53.00
2019-02-25T20:02:27.216Z,53.00
2019-02-25T20:04:56.831Z,53.20
2019-02-25T20:07:29.233Z,53.50
2019-02-25T20:09:58.402Z,53.40
2019-02-25T20:12:28.380Z,53.40
2019-02-25T20:14:59.278Z,53.40
2019-02-25T20:17:30.982Z,53.60
2019-02-25T20:20:03.010Z,53.50
2019-02-25T20:22:34.541Z,53.70
2019-02-25T20:25:06.529Z,53.90
2019-02-25T20:27:36.843Z,53.70
2019-02-25T20:30:12.532Z,54.00
2019-02-25T20:32:42.929Z,54.00
2019-02-25T20:35:17.759Z,54.30
2019-02-25T20:37:51.150Z,54.60
2019-02-25T20:40:21.812Z,54.30
2019-02-25T20:42:53.470Z,54.40
2019-02-25T20:45:35.327Z,54.40
2019-02-25T20:48:05.738Z,54.40
2019-02-25T20:50:36.864Z,54.60
2019-02-25T20:53:09.204Z,54.80
2019-02-25T20:55:38.434Z,54.90
2019-02-25T20:58:08.525Z,54.70
2019-02-25T21:00:39.797Z,54.90
2019-02-25T21:03:12.228Z,54.90
2019-02-25T21:05:41.847Z,55.10
2019-02-25T21:08:14.701Z,55.20
2019-02-25T21:10:45.342Z,55.80
2019-02-25T21:13:15.163Z,55.60
2019-02-25T21:15:45.429Z,55.30
2019-02-25T21:18:15.310Z,55.70
2019-02-25T21:20:47.213Z,56.10
2019-02-25T21:23:16.704Z,56.10
2019-02-25T21:25:46.731Z,56.30
2019-02-25T21:28:17.798Z,56.20
2019-02-25T21:30:48.967Z,56.50
2019-02-25T21:33:19.906Z,56.60
2019-02-25T21:35:51.489Z,56.80
2019-02-25T21:38:22.260Z,57.00
2019-02-25T21:40:54.821Z,57.30
2019-02-25T21:43:28.419Z,57.60
2019-02-25T21:45:57.015Z,57.70
2019-02-25T21:48:30.261Z,57.80
2019-02-25T21:51:02.237Z,57.50
2019-02-25T21:53:32.364Z,57.40
2019-02-25T21:56:04.724Z,57.40
2019-02-25T21:58:33.893Z,57.30
2019-02-25T22:01:05.047Z,57.40
2019-02-25T22:03:39.479Z,57.20
2019-02-25T22:06:07.081Z,57.70
2019-02-25T22:08:36.986Z,57.60
2019-02-25T22:11:12.244Z,57.80
2019-02-25T22:13:38.265Z,57.70
2019-02-25T22:16:08.437Z,57.60
2019-02-25T22:18:38.369Z,58.00
2019-02-25T22:21:09.434Z,58.10
2019-02-25T22:23:39.815Z,58.00
2019-02-25T22:26:09.793Z,57.80
2019-02-25T22:28:39.711Z,57.90
2019-02-25T22:31:10.926Z,58.10
2019-02-25T22:33:41.168Z,58.40
2019-02-25T22:36:11.064Z,58.30
2019-02-25T22:38:40.917Z,58.50
2019-02-25T22:41:12.034Z,58.60
2019-02-25T22:43:44.419Z,58.60
2019-02-25T22:46:14.619Z,58.70
2019-02-25T22:48:45.531Z,59.10
2019-02-25T22:51:16.734Z,59.30
2019-02-25T22:53:46.562Z,59.10
2019-02-25T22:56:18.130Z,58.70
2019-02-25T22:58:47.889Z,58.80
2019-02-25T23:01:18.269Z,58.80
2019-02-25T23:03:50.495Z,58.90
2019-02-25T23:06:21.328Z,59.00
2019-02-25T23:08:53.382Z,59.10
2019-02-25T23:11:24.353Z,59.30
2019-02-25T23:13:54.900Z,59.00
2019-02-25T23:16:25.430Z,59.10
2019-02-25T23:18:55.427Z,59.20
2019-02-25T23:21:26.967Z,59.40
2019-02-25T23:23:58.076Z,59.50
2019-02-25T23:26:28.406Z,59.80
2019-02-25T23:28:59.824Z,60.00
2019-02-25T23:31:30.698Z,60.00
2019-02-25T23:34:01.646Z,60.10
2019-02-25T23:36:31.408Z,59.90
2019-02-25T23:39:01.699Z,59.80
2019-02-25T23:41:36.567Z,59.60
2019-02-25T23:44:07.135Z,59.80
2019-02-25T23:46:39.887Z,59.80
2019-02-25T23:49:09.326Z,59.60
2019-02-25T23:51:41.575Z,59.70
2019-02-25T23:54:12.156Z,60.10
2019-02-25T23:56:45.474Z,60.20
2019-02-25T23:59:16.635Z,60.50
